West Akron, Ohio
Current Conditions -  °F | °C
As of 10:54 AM on Friday 24 Oct 2014 (Local Time) from KAKR Reporting Station
Clear Clear  
Wind Chill: 54°   Ceiling: Unl
Heat Index: 54°   Visibility: 10mi
Dew Point: 42°   Wind: 7mph
Humidity: 64%   Direction: 260°W
Pressure: 30.1"   Gusts: NA
Location:  41.0707°N, 81.5458°W
Report Text: KAKR 241454Z AUTO 26006KT 10SM CLR 12/06 A3010 RMK AO2 SLP196 T01220056 51000
Loading
Personal Weather Stations






























Interactive Weather Map New forecast layout! Learn more

10-Day Weather Forecast

Advertisements
Track Severe Weather on mobile